createdAt,value
2019-01-18T00:02:28.184Z,71.00
2019-01-18T00:05:31.882Z,69.90
2019-01-18T00:08:35.521Z,69.20
2019-01-18T00:11:39.224Z,69.50
2019-01-18T00:14:42.876Z,69.60
2019-01-18T00:17:46.596Z,70.20
2019-01-18T00:20:50.243Z,70.40
2019-01-18T00:23:53.937Z,71.10
2019-01-18T00:26:57.591Z,71.70
2019-01-18T00:30:01.281Z,72.40
2019-01-18T00:33:04.931Z,72.40
2019-01-18T00:36:08.663Z,72.60
2019-01-18T00:39:12.349Z,72.60
2019-01-18T00:42:16.021Z,72.90
2019-01-18T00:45:20.875Z,73.70
2019-01-18T00:48:24.577Z,73.80
2019-01-18T00:51:28.227Z,74.30
2019-01-18T00:58:04.852Z,74.60
2019-01-18T01:01:08.531Z,74.80
2019-01-18T01:04:12.186Z,75.40
2019-01-18T01:07:17.429Z,75.60
2019-01-18T01:10:21.063Z,75.40
2019-01-18T01:13:24.755Z,75.10
2019-01-18T01:16:28.403Z,75.10
2019-01-18T01:19:32.100Z,75.10
2019-01-18T01:22:35.746Z,75.60
2019-01-18T01:25:39.469Z,75.90
2019-01-18T01:28:43.124Z,76.30
2019-01-18T01:31:46.820Z,76.50
2019-01-18T01:34:50.480Z,76.40
2019-01-18T01:37:54.178Z,76.20
2019-01-18T01:40:57.804Z,76.60
2019-01-18T01:44:01.503Z,76.80
2019-01-18T01:47:05.148Z,77.20
2019-01-18T01:50:11.922Z,77.40
2019-01-18T01:53:15.566Z,77.80
2019-01-18T01:56:19.278Z,77.80
2019-01-18T01:59:22.910Z,78.20
2019-01-18T02:02:26.649Z,79.10
2019-01-18T02:05:30.292Z,79.30
2019-01-18T02:08:34.026Z,79.40
2019-01-18T02:11:37.672Z,80.50
2019-01-18T02:14:41.373Z,81.00
2019-01-18T02:17:45.023Z,81.30
2019-01-18T02:20:48.714Z,82.20
2019-01-18T02:23:52.368Z,82.70
2019-01-18T02:26:56.058Z,82.60
2019-01-18T02:29:59.703Z,82.40
2019-01-18T02:33:03.380Z,81.70
2019-01-18T02:36:07.036Z,82.40
2019-01-18T02:39:10.716Z,82.10
2019-01-18T02:42:14.344Z,82.80
2019-01-18T02:45:19.863Z,82.20
2019-01-18T02:48:24.795Z,82.00
2019-01-18T02:51:28.524Z,81.80
2019-01-18T02:54:32.199Z,81.70
2019-01-18T02:57:35.912Z,82.10
2019-01-18T03:00:39.608Z,81.90
2019-01-18T03:03:43.358Z,81.40
2019-01-18T03:06:46.991Z,81.80
2019-01-18T03:09:50.607Z,81.90
2019-01-18T03:12:54.283Z,82.20
2019-01-18T03:15:57.960Z,83.10
2019-01-18T03:19:01.595Z,82.40
2019-01-18T03:22:05.301Z,82.30
2019-01-18T03:25:20.567Z,82.30
2019-01-18T03:28:24.237Z,82.40
2019-01-18T03:31:27.893Z,82.00
2019-01-18T03:34:31.592Z,81.90
2019-01-18T03:37:35.242Z,81.90
2019-01-18T03:40:38.992Z,81.20
2019-01-18T03:43:42.603Z,81.10
2019-01-18T03:46:46.296Z,81.00
2019-01-18T03:49:51.340Z,80.60
2019-01-18T03:52:55.018Z,80.70
2019-01-18T03:55:58.680Z,80.20
2019-01-18T03:59:02.409Z,80.30
2019-01-18T04:02:06.045Z,79.20
2019-01-18T04:05:10.942Z,79.70
2019-01-18T04:08:14.603Z,80.20
2019-01-18T04:11:18.284Z,79.70
2019-01-18T04:14:21.939Z,79.40
2019-01-18T04:17:25.636Z,79.40
2019-01-18T04:20:29.284Z,78.70
2019-01-18T04:23:32.991Z,77.90
2019-01-18T04:26:36.634Z,77.50
2019-01-18T04:29:40.318Z,77.30
2019-01-18T04:32:43.988Z,77.40
2019-01-18T04:35:47.664Z,76.20
2019-01-18T04:38:51.304Z,76.10
2019-01-18T04:41:55.044Z,75.90
2019-01-18T04:44:58.692Z,76.40
2019-01-18T04:48:02.425Z,74.90
2019-01-18T04:51:07.338Z,74.80
2019-01-18T04:54:11.055Z,74.80
2019-01-18T04:57:14.678Z,74.50
2019-01-18T05:00:23.716Z,74.40
2019-01-18T05:03:27.351Z,74.00
2019-01-18T05:06:31.129Z,74.10
2019-01-18T05:09:34.765Z,73.40
2019-01-18T05:12:38.478Z,73.10
2019-01-18T05:15:42.109Z,74.00
2019-01-18T05:18:45.846Z,73.80
2019-01-18T05:21:49.465Z,74.30
2019-01-18T05:24:53.165Z,74.30
2019-01-18T05:27:56.813Z,75.00
2019-01-18T05:31:00.517Z,76.10
2019-01-18T05:34:04.156Z,78.50
2019-01-18T05:37:07.900Z,79.00
2019-01-18T05:40:19.108Z,80.20
2019-01-18T05:43:22.803Z,81.40
2019-01-18T05:46:26.486Z,82.80
2019-01-18T05:49:30.160Z,83.30
2019-01-18T05:52:33.817Z,84.10
2019-01-18T05:55:37.509Z,84.70
2019-01-18T05:58:41.156Z,84.50
2019-01-18T06:01:44.831Z,84.70
2019-01-18T06:04:49.480Z,84.80
2019-01-18T06:07:53.175Z,85.20
2019-01-18T06:10:56.812Z,85.70
2019-01-18T06:14:00.536Z,85.80
2019-01-18T06:17:04.162Z,86.40
2019-01-18T06:20:11.225Z,86.80
2019-01-18T06:23:14.871Z,87.60
2019-01-18T06:26:18.629Z,88.60
2019-01-18T06:29:22.321Z,89.30
2019-01-18T06:32:26.022Z,90.40
2019-01-18T06:35:29.746Z,90.70
2019-01-18T06:38:33.380Z,91.30
2019-01-18T06:41:37.635Z,91.70
2019-01-18T06:44:41.323Z,91.80
2019-01-18T06:47:44.996Z,91.90
2019-01-18T06:50:48.724Z,92.10
2019-01-18T06:53:52.481Z,92.10
2019-01-18T06:56:56.897Z,92.20
2019-01-18T07:00:00.548Z,92.30
2019-01-18T07:03:04.323Z,92.20
2019-01-18T07:06:08.031Z,92.10
2019-01-18T07:09:11.793Z,92.00
2019-01-18T07:12:15.537Z,91.50
2019-01-18T07:15:19.352Z,91.00
2019-01-18T07:18:23.016Z,90.80
2019-01-18T07:21:26.775Z,90.60
2019-01-18T07:24:30.415Z,88.80
2019-01-18T07:27:34.098Z,87.70
2019-01-18T07:30:38.284Z,87.00
2019-01-18T07:33:41.994Z,85.70
2019-01-18T07:36:45.970Z,86.80
2019-01-18T07:39:49.678Z,89.10
2019-01-18T07:42:53.343Z,90.90
2019-01-18T07:45:57.038Z,91.90
2019-01-18T07:49:00.714Z,92.60
2019-01-18T07:52:04.436Z,93.20
2019-01-18T07:55:09.508Z,93.60
2019-01-18T07:58:13.193Z,94.30
2019-01-18T08:01:22.048Z,94.30
2019-01-18T08:04:22.172Z,94.60
2019-01-18T08:07:25.832Z,95.30
2019-01-18T08:10:29.551Z,94.90
2019-01-18T08:13:33.196Z,94.20
2019-01-18T08:16:36.900Z,94.70
2019-01-18T08:19:40.556Z,93.80
2019-01-18T08:22:44.332Z,93.90
2019-01-18T08:25:48.014Z,93.90
2019-01-18T08:28:51.705Z,93.90
2019-01-18T08:31:55.358Z,94.60
2019-01-18T08:34:59.050Z,95.00
2019-01-18T08:38:02.719Z,95.10
2019-01-18T08:41:06.397Z,95.20
2019-01-18T08:44:10.040Z,94.90
2019-01-18T08:47:13.804Z,94.70
2019-01-18T08:50:19.382Z,94.60
2019-01-18T08:53:23.075Z,94.60
2019-01-18T08:56:26.749Z,94.60
2019-01-18T08:59:30.503Z,94.50
2019-01-18T09:02:34.164Z,94.50
2019-01-18T09:05:37.875Z,94.30
2019-01-18T09:08:41.519Z,93.90
2019-01-18T09:11:45.224Z,93.20
2019-01-18T09:14:48.896Z,92.90
2019-01-18T09:17:52.598Z,92.60
2019-01-18T09:20:56.263Z,92.30
2019-01-18T09:23:59.957Z,92.20
2019-01-18T09:27:03.600Z,91.80
2019-01-18T09:30:21.325Z,91.00
2019-01-18T09:33:24.959Z,91.70
2019-01-18T09:36:28.714Z,91.60
2019-01-18T09:39:32.346Z,91.20
2019-01-18T09:42:36.024Z,91.00
2019-01-18T09:45:39.723Z,90.90
2019-01-18T09:48:43.416Z,90.50
2019-01-18T09:51:47.083Z,90.40
2019-01-18T09:54:50.777Z,90.10
2019-01-18T09:57:54.436Z,89.30
2019-01-18T10:00:58.133Z,89.70
2019-01-18T10:04:01.788Z,88.40
2019-01-18T10:07:05.509Z,88.20
2019-01-18T10:10:12.575Z,87.60
2019-01-18T10:13:16.271Z,87.70
2019-01-18T10:16:19.910Z,87.40
2019-01-18T10:19:23.605Z,88.00
2019-01-18T10:22:27.287Z,87.50
2019-01-18T10:25:30.954Z,86.80
2019-01-18T10:28:34.603Z,84.30
2019-01-18T10:31:38.284Z,83.10
2019-01-18T10:34:41.969Z,82.60
2019-01-18T10:37:45.676Z,82.50
2019-01-18T10:40:49.308Z,81.20
2019-01-18T10:43:53.020Z,80.80
2019-01-18T10:46:56.818Z,80.50
2019-01-18T10:50:00.715Z,80.10
2019-01-18T10:53:04.888Z,81.50
2019-01-18T10:56:09.050Z,79.80
2019-01-18T10:59:12.743Z,80.70
2019-01-18T11:02:16.443Z,81.10
2019-01-18T11:05:20.720Z,79.80
2019-01-18T11:08:24.408Z,80.50
2019-01-18T11:11:28.084Z,81.10
2019-01-18T11:14:31.773Z,80.90
2019-01-18T11:17:35.442Z,79.00
2019-01-18T11:20:42.243Z,78.30
2019-01-18T11:23:45.900Z,76.10
2019-01-18T11:26:49.613Z,75.60
2019-01-18T11:29:53.243Z,74.70
2019-01-18T11:32:56.935Z,74.10
2019-01-18T11:36:00.591Z,73.00
2019-01-18T11:39:04.861Z,72.10
2019-01-18T11:42:08.502Z,72.10
2019-01-18T11:45:13.208Z,71.50
2019-01-18T11:48:16.884Z,70.90
2019-01-18T11:51:20.581Z,71.90
2019-01-18T11:54:24.278Z,69.50
2019-01-18T11:57:27.935Z,68.70
2019-01-18T12:00:37.630Z,67.10
2019-01-18T12:03:36.924Z,68.60
2019-01-18T12:06:40.593Z,69.00
2019-01-18T12:09:44.302Z,67.20
2019-01-18T12:12:47.945Z,65.20
2019-01-18T12:15:51.660Z,66.80
2019-01-18T12:18:55.304Z,64.10
2019-01-18T12:21:59.010Z,63.40
2019-01-18T12:25:02.666Z,64.80
2019-01-18T12:28:06.369Z,66.00
2019-01-18T12:31:10.055Z,66.90
2019-01-18T12:34:14.905Z,67.50
2019-01-18T12:37:18.534Z,69.20
2019-01-18T12:40:22.251Z,70.50
2019-01-18T12:43:25.915Z,68.20
2019-01-18T12:46:29.600Z,70.30
2019-01-18T12:49:33.278Z,70.90
2019-01-18T12:52:36.975Z,69.60
2019-01-18T12:55:40.610Z,68.90
2019-01-18T12:58:44.331Z,67.60
2019-01-18T13:01:47.980Z,68.50
2019-01-18T13:04:51.884Z,68.50
2019-01-18T13:07:55.539Z,69.90
2019-01-18T13:10:59.230Z,71.40
2019-01-18T13:14:02.978Z,71.10
2019-01-18T13:17:06.662Z,72.10
2019-01-18T13:20:12.646Z,73.40
2019-01-18T13:23:16.348Z,74.30
2019-01-18T13:26:20.041Z,74.70
2019-01-18T13:29:23.745Z,75.50
2019-01-18T13:32:27.388Z,76.00
2019-01-18T13:35:31.121Z,76.40
2019-01-18T13:38:34.729Z,76.70
2019-01-18T13:41:38.434Z,77.80
2019-01-18T13:44:43.741Z,78.00
2019-01-18T13:47:47.439Z,77.90
2019-01-18T13:50:51.207Z,79.00
2019-01-18T13:53:54.898Z,78.90
2019-01-18T13:56:58.555Z,82.00
2019-01-18T14:00:02.258Z,82.70
2019-01-18T14:03:05.923Z,84.10
2019-01-18T14:06:09.674Z,84.10
2019-01-18T14:09:13.299Z,84.50
2019-01-18T14:12:17.020Z,84.30
2019-01-18T14:15:22.533Z,84.20
2019-01-18T14:18:26.232Z,83.40
2019-01-18T14:21:31.241Z,82.60
2019-01-18T14:24:34.964Z,82.70
2019-01-18T14:27:38.614Z,82.90
2019-01-18T14:30:42.331Z,82.90
2019-01-18T14:33:45.964Z,81.90
2019-01-18T14:36:49.681Z,82.50
2019-01-18T14:39:53.332Z,83.40
2019-01-18T14:42:57.328Z,83.40
2019-01-18T14:46:00.981Z,83.40
2019-01-18T14:49:04.682Z,84.10
2019-01-18T14:52:08.351Z,83.70
2019-01-18T14:55:12.040Z,84.60
2019-01-18T14:58:15.683Z,84.70
2019-01-18T15:01:19.391Z,85.20
2019-01-18T15:04:23.057Z,85.10
2019-01-18T15:07:26.796Z,85.20
2019-01-18T15:10:30.457Z,84.80
2019-01-18T15:13:34.154Z,85.70
2019-01-18T15:16:37.804Z,85.00
2019-01-18T15:19:41.575Z,86.00
2019-01-18T15:22:45.289Z,85.40
2019-01-18T15:25:48.984Z,85.70
2019-01-18T15:28:52.631Z,86.10
2019-01-18T15:31:56.387Z,86.00
2019-01-18T15:35:00.092Z,86.70
2019-01-18T15:38:04.758Z,86.30
2019-01-18T15:41:08.382Z,86.70
2019-01-18T15:44:12.087Z,86.50
2019-01-18T15:47:15.732Z,87.40
2019-01-18T15:50:24.573Z,87.80
2019-01-18T15:53:28.223Z,88.00
2019-01-18T15:56:31.920Z,88.20
2019-01-18T15:59:35.597Z,88.30
2019-01-18T16:02:39.321Z,88.90
2019-01-18T16:05:42.957Z,89.30
2019-01-18T16:08:46.666Z,89.70
2019-01-18T16:11:50.317Z,89.60
2019-01-18T16:14:54.077Z,89.80
2019-01-18T16:17:57.698Z,89.20
2019-01-18T16:21:02.616Z,88.60
2019-01-18T16:24:06.372Z,88.90
2019-01-18T16:27:10.075Z,88.70
2019-01-18T16:30:16.402Z,87.40
2019-01-18T16:33:23.566Z,88.00
2019-01-18T16:36:25.625Z,89.10
2019-01-18T16:39:29.643Z,89.70
2019-01-18T16:42:33.293Z,89.60
2019-01-18T16:45:37.014Z,89.20
2019-01-18T16:48:40.679Z,90.00
2019-01-18T16:51:44.389Z,90.00
2019-01-18T16:54:48.042Z,89.70
2019-01-18T16:57:51.758Z,89.30
2019-01-18T17:00:58.422Z,89.50
2019-01-18T17:04:02.093Z,89.50
2019-01-18T17:07:05.764Z,88.70
2019-01-18T17:10:12.575Z,88.30
2019-01-18T17:13:16.238Z,88.10
2019-01-18T17:16:19.980Z,87.90
2019-01-18T17:19:24.087Z,87.20
2019-01-18T17:22:27.858Z,87.80
2019-01-18T17:25:31.516Z,87.40
2019-01-18T17:28:35.232Z,87.70
2019-01-18T17:31:38.911Z,87.70
2019-01-18T17:34:42.619Z,87.30
2019-01-18T17:37:50.652Z,87.40
2019-01-18T17:41:15.656Z,87.60
2019-01-18T17:44:34.315Z,87.40
2019-01-18T17:47:41.150Z,87.30
2019-01-18T17:51:19.662Z,87.30
2019-01-18T17:54:26.509Z,87.90
2019-01-18T17:58:04.549Z,88.10
2019-01-18T18:01:18.893Z,87.20
2019-01-18T18:04:40.766Z,87.70
2019-01-18T18:07:50.532Z,87.30
2019-01-18T18:11:09.823Z,86.70
2019-01-18T18:14:25.541Z,86.90
2019-01-18T18:17:44.419Z,86.40
2019-01-18T18:20:57.125Z,86.70
2019-01-18T18:24:18.808Z,86.40
2019-01-18T18:27:31.569Z,86.00
2019-01-18T18:30:38.302Z,85.60
2019-01-18T18:34:14.083Z,85.90
2019-01-18T18:37:23.718Z,84.60
2019-01-18T18:40:36.228Z,85.00
2019-01-18T18:44:08.542Z,84.10
2019-01-18T18:47:27.352Z,84.10
2019-01-18T18:50:58.467Z,83.30
2019-01-18T18:54:05.330Z,84.10
2019-01-18T18:57:30.364Z,83.50
2019-01-18T19:00:56.371Z,83.20
2019-01-18T19:04:08.680Z,83.90
2019-01-18T19:07:47.081Z,83.20
2019-01-18T19:11:02.883Z,82.50
2019-01-18T19:14:32.234Z,81.20
2019-01-18T19:17:47.515Z,78.00
2019-01-18T19:21:27.717Z,79.10
2019-01-18T19:24:37.327Z,78.60
2019-01-18T19:27:49.820Z,77.10
2019-01-18T19:30:56.587Z,75.60
2019-01-18T19:34:04.499Z,76.20
2019-01-18T19:37:31.021Z,76.40
2019-01-18T19:40:40.717Z,75.30
2019-01-18T19:44:02.494Z,76.10
2019-01-18T19:47:09.343Z,76.10
2019-01-18T19:50:32.780Z,76.80
2019-01-18T19:53:51.425Z,77.90
2019-01-18T19:56:58.224Z,77.90
2019-01-18T20:00:22.671Z,77.80
2019-01-18T20:03:35.178Z,78.90
2019-01-18T20:06:58.924Z,78.30
2019-01-18T20:10:20.635Z,79.20
2019-01-18T20:13:48.874Z,79.20
2019-01-18T20:17:07.911Z,80.00
2019-01-18T20:20:26.784Z,79.60
2019-01-18T20:23:45.440Z,80.10
2019-01-18T20:26:58.159Z,80.80
2019-01-18T20:30:32.147Z,80.20
2019-01-18T20:33:57.167Z,79.60
2019-01-18T20:37:06.589Z,80.20
2019-01-18T20:40:25.715Z,80.00
2019-01-18T20:43:32.515Z,79.90
2019-01-18T20:46:45.016Z,79.50
2019-01-18T20:49:51.813Z,79.00
2019-01-18T20:53:10.887Z,80.60
2019-01-18T20:56:23.385Z,79.10
2019-01-18T20:59:46.943Z,79.10
2019-01-18T21:03:09.690Z,79.30
2019-01-18T21:06:16.503Z,78.30
2019-01-18T21:09:26.231Z,77.00
2019-01-18T21:12:33.087Z,76.50
2019-01-18T21:16:09.829Z,75.80
2019-01-18T21:19:28.439Z,75.50
2019-01-18T21:26:10.586Z,75.50
2019-01-18T21:29:29.463Z,75.30
2019-01-18T21:32:48.304Z,72.80
2019-01-18T21:35:55.076Z,73.20
2019-01-18T21:39:21.250Z,72.80
2019-01-18T21:42:30.763Z,72.40
2019-01-18T21:46:12.720Z,72.50
2019-01-18T21:49:22.502Z,72.70
2019-01-18T21:52:50.464Z,73.30
2019-01-18T21:55:57.229Z,73.20
2019-01-18T21:59:07.031Z,73.40
2019-01-18T22:02:16.422Z,73.30
2019-01-18T22:05:44.585Z,72.50
2019-01-18T22:09:04.918Z,72.00
2019-01-18T22:12:17.456Z,71.90
2019-01-18T22:15:44.660Z,71.80
2019-01-18T22:19:14.053Z,72.60
2019-01-18T22:22:29.775Z,72.70
2019-01-18T22:25:45.394Z,73.20
2019-01-18T22:29:13.563Z,73.20
2019-01-18T22:32:23.219Z,73.60
2019-01-18T22:35:47.926Z,73.70
2019-01-18T22:38:54.805Z,75.10
2019-01-18T22:42:13.551Z,75.80
2019-01-18T22:45:32.465Z,75.00
2019-01-18T22:48:48.360Z,71.80
2019-01-18T22:52:03.927Z,73.40
2019-01-18T22:55:25.779Z,75.90
2019-01-18T22:58:50.915Z,77.10
2019-01-18T23:01:57.763Z,76.60
2019-01-18T23:05:13.736Z,75.60
2019-01-18T23:08:53.752Z,75.40
2019-01-18T23:12:00.542Z,75.00
2019-01-18T23:15:21.761Z,77.30
2019-01-18T23:18:40.292Z,79.60
2019-01-18T23:21:56.137Z,79.90
2019-01-18T23:25:31.392Z,77.40
2019-01-18T23:28:47.271Z,80.20
2019-01-18T23:32:00.008Z,81.70
2019-01-18T23:35:06.752Z,80.00
2019-01-18T23:38:13.622Z,82.20
2019-01-18T23:41:39.853Z,82.20
2019-01-18T23:45:15.545Z,85.30
2019-01-18T23:48:37.095Z,85.80
2019-01-18T23:51:46.450Z,86.10
2019-01-18T23:55:01.797Z,87.40
2019-01-18T23:58:17.512Z,85.10
